Time;durP1;ratioP1;P1;durP2;ratioP2;P2;SDS_P1;SDS_P2;PMS_P1;PMS_P2;Temp;Humidity;BMP_temperature;BMP_pressure;BME280_temperature;BME280_humidity;BME280_pressure;Samples;Min_cycle;Max_cycle;Signal;HPM_P1;HPM_P2
2022/06/12 00:01:25;;;;;;;7.50;3.40;;;;;;;;;;5089841;28;20031;-73
2022/06/12 00:03:51;;;;;;;4.70;3.63;;;;;;;;;;5084199;28;20022;-73
2022/06/12 00:06:18;;;;;;;4.45;3.20;;;;;;;;;;5089493;28;20527;-72
2022/06/12 00:08:44;;;;;;;5.78;3.50;;;;;;;;;;5082740;28;20031;-75
2022/06/12 00:11:12;;;;;;;3.90;3.33;;;;;;;;;;5090886;28;20380;-73
2022/06/12 00:13:41;;;;;;;4.22;3.08;;;;;;;;;;5090166;28;20490;-72
2022/06/12 00:16:08;;;;;;;5.82;3.20;;;;;;;;;;5072018;28;20392;-80
2022/06/12 00:18:34;;;;;;;6.18;3.10;;;;;;;;;;5090257;28;20070;-73
2022/06/12 00:21:10;;;;;;;5.72;3.53;;;;;;;;;;5089560;28;20152;-74
2022/06/12 00:23:55;;;;;;;3.30;3.00;;;;;;;;;;5090847;28;20024;-73
2022/06/12 00:26:28;;;;;;;3.83;3.40;;;;;;;;;;5083571;28;20050;-81
2022/06/12 00:29:07;;;;;;;4.80;3.33;;;;;;;;;;5083035;28;20391;-73
2022/06/12 00:31:34;;;;;;;3.80;3.40;;;;;;;;;;5089756;28;20048;-72
2022/06/12 00:34:01;;;;;;;3.63;2.60;;;;;;;;;;5084342;28;20028;-73
2022/06/12 00:36:28;;;;;;;3.88;3.20;;;;;;;;;;5079332;28;20383;-76
2022/06/12 00:38:54;;;;;;;4.53;3.30;;;;;;;;;;5090576;28;20437;-72
2022/06/12 00:41:20;;;;;;;5.32;3.42;;;;;;;;;;5089026;28;20103;-72
2022/06/12 00:43:47;;;;;;;7.25;3.85;;;;;;;;;;5090091;28;20055;-72
2022/06/12 00:46:32;;;;;;;4.00;3.42;;;;;;;;;;5090621;28;20032;-72
2022/06/12 00:48:58;;;;;;;6.57;3.90;;;;;;;;;;5081969;28;20024;-72
2022/06/12 00:51:24;;;;;;;6.85;3.45;;;;;;;;;;5083005;28;20033;-73
2022/06/12 00:53:53;;;;;;;5.97;3.95;;;;;;;;;;5087772;28;20024;-73
2022/06/12 00:56:24;;;;;;;9.60;4.20;;;;;;;;;;5081716;28;20051;-72
2022/06/12 00:58:53;;;;;;;6.95;4.55;;;;;;;;;;5082228;28;20028;-73
2022/06/12 01:01:21;;;;;;;4.78;3.95;;;;;;;;;;5090173;28;20035;-73
2022/06/12 01:06:35;;;;;;;6.10;3.92;;;;;;;;;;5089364;28;20090;-72
2022/06/12 01:09:07;;;;;;;5.13;3.70;;;;;;;;;;5071438;28;20447;-73
2022/06/12 01:11:34;;;;;;;6.25;4.20;;;;;;;;;;5090325;28;20036;-73
2022/06/12 01:14:01;;;;;;;5.93;3.83;;;;;;;;;;5076777;28;20032;-72
2022/06/12 01:16:27;;;;;;;4.93;3.78;;;;;;;;;;5084802;28;20032;-73
2022/06/12 01:18:56;;;;;;;5.82;4.40;;;;;;;;;;5087236;28;20031;-73
2022/06/12 01:21:25;;;;;;;5.65;4.22;;;;;;;;;;5088639;28;20024;-73
2022/06/12 01:23:54;;;;;;;5.43;4.15;;;;;;;;;;5069101;28;20735;-76
2022/06/12 01:26:20;;;;;;;6.13;4.25;;;;;;;;;;5089492;28;20032;-73
2022/06/12 01:29:12;;;;;;;6.13;4.68;;;;;;;;;;5089793;28;20086;-74
2022/06/12 01:31:43;;;;;;;7.05;4.22;;;;;;;;;;5082611;28;20044;-73
2022/06/12 01:34:30;;;;;;;4.95;4.18;;;;;;;;;;5085778;28;20067;-75
2022/06/12 01:37:15;;;;;;;8.07;4.68;;;;;;;;;;5079473;28;20391;-73
2022/06/12 01:39:53;;;;;;;6.63;4.18;;;;;;;;;;5089948;28;20050;-72
2022/06/12 01:42:19;;;;;;;7.07;4.47;;;;;;;;;;5082264;28;20012;-73
2022/06/12 01:44:50;;;;;;;5.47;4.40;;;;;;;;;;5069159;28;20034;-82
2022/06/12 05:04:24;;;;;;;9.63;4.00;;;;;;;;;;5005730;28;20065;-94
2022/06/12 05:07:11;;;;;;;6.53;3.80;;;;;;;;;;5077164;28;20111;-94
2022/06/12 05:09:43;;;;;;;5.53;3.60;;;;;;;;;;5073898;28;20098;-95
2022/06/12 05:12:13;;;;;;;7.55;3.83;;;;;;;;;;5077637;28;20030;-96
2022/06/12 05:14:42;;;;;;;8.68;4.70;;;;;;;;;;5077356;28;20026;-94
2022/06/12 05:17:11;;;;;;;5.45;3.85;;;;;;;;;;5076560;28;20107;-92
2022/06/12 05:19:41;;;;;;;6.97;4.40;;;;;;;;;;5076495;28;20034;-92
2022/06/12 05:22:11;;;;;;;7.47;3.63;;;;;;;;;;5076450;28;20016;-91
2022/06/12 05:24:45;;;;;;;10.25;4.32;;;;;;;;;;5076753;28;20016;-92
2022/06/12 05:27:18;;;;;;;7.13;3.60;;;;;;;;;;5076555;28;20083;-93
2022/06/12 05:29:44;;;;;;;4.65;3.60;;;;;;;;;;5076637;28;20047;-90
2022/06/12 05:32:13;;;;;;;6.30;3.70;;;;;;;;;;5076135;28;20024;-90
2022/06/12 05:34:42;;;;;;;6.85;3.60;;;;;;;;;;5076358;28;20023;-92
2022/06/12 05:37:08;;;;;;;5.93;3.78;;;;;;;;;;5076220;28;20462;-91
2022/06/12 05:39:34;;;;;;;7.18;4.05;;;;;;;;;;5076562;28;20027;-92
2022/06/12 05:42:03;;;;;;;5.93;3.97;;;;;;;;;;5077875;28;20043;-91
2022/06/12 05:44:54;;;;;;;14.35;4.55;;;;;;;;;;5080360;28;20466;-94
2022/06/12 05:47:22;;;;;;;7.97;3.97;;;;;;;;;;5080234;28;20020;-92
2022/06/12 05:50:01;;;;;;;5.78;4.28;;;;;;;;;;5083109;28;20040;-91
2022/06/12 05:52:32;;;;;;;5.30;3.70;;;;;;;;;;5080328;28;20024;-91
2022/06/12 05:55:05;;;;;;;7.33;4.70;;;;;;;;;;5080774;28;20024;-92
2022/06/12 05:57:34;;;;;;;7.68;4.07;;;;;;;;;;5080721;28;20281;-91
2022/06/12 06:00:00;;;;;;;7.50;4.38;;;;;;;;;;5080061;28;20289;-92
2022/06/12 06:02:38;;;;;;;5.00;3.72;;;;;;;;;;5078592;28;20024;-91
2022/06/12 06:05:04;;;;;;;7.90;4.10;;;;;;;;;;5059686;28;20129;-91
2022/06/12 06:07:33;;;;;;;11.05;4.53;;;;;;;;;;5077505;28;20063;-91
2022/06/12 06:10:02;;;;;;;6.80;4.88;;;;;;;;;;5060242;28;20032;-92
2022/06/12 06:12:28;;;;;;;7.18;4.07;;;;;;;;;;5059808;28;20025;-92
2022/06/12 06:14:55;;;;;;;6.78;4.75;;;;;;;;;;5059697;28;20119;-92
2022/06/12 06:17:21;;;;;;;7.72;4.60;;;;;;;;;;5059963;28;20501;-92
2022/06/12 06:19:49;;;;;;;6.00;3.75;;;;;;;;;;5060010;28;20017;-92
2022/06/12 06:22:18;;;;;;;6.30;4.57;;;;;;;;;;5059498;28;20024;-92
2022/06/12 06:24:44;;;;;;;5.97;3.92;;;;;;;;;;5059604;28;20021;-91
2022/06/12 06:27:13;;;;;;;9.05;4.80;;;;;;;;;;5059820;28;20078;-92
2022/06/12 06:29:42;;;;;;;6.88;3.78;;;;;;;;;;5059450;28;20021;-94
2022/06/12 06:32:11;;;;;;;5.20;3.95;;;;;;;;;;5059449;28;20027;-92
2022/06/12 06:34:40;;;;;;;8.23;4.15;;;;;;;;;;5059566;28;20132;-92
2022/06/12 06:37:08;;;;;;;4.50;3.78;;;;;;;;;;5059505;28;20024;-91
2022/06/12 06:39:34;;;;;;;11.20;4.30;;;;;;;;;;5059177;28;20020;-92
2022/06/12 06:42:00;;;;;;;7.03;3.97;;;;;;;;;;5059210;28;20028;-92
2022/06/12 06:47:12;;;;;;;10.52;4.72;;;;;;;;;;5077519;28;20044;-92
2022/06/12 06:49:38;;;;;;;7.18;4.25;;;;;;;;;;5059204;28;20068;-92
2022/06/12 06:52:04;;;;;;;8.35;4.85;;;;;;;;;;5058758;28;20031;-92
2022/06/12 06:54:30;;;;;;;6.88;4.60;;;;;;;;;;5059005;28;20191;-91
2022/06/12 06:56:56;;;;;;;6.70;5.03;;;;;;;;;;5059343;28;20020;-92
2022/06/12 06:59:23;;;;;;;7.75;3.78;;;;;;;;;;5059678;28;20462;-91
2022/06/12 07:01:52;;;;;;;5.32;3.70;;;;;;;;;;5058892;28;20470;-93
2022/06/12 07:04:21;;;;;;;5.50;3.75;;;;;;;;;;5058597;28;20032;-93
2022/06/12 07:06:54;;;;;;;7.00;3.15;;;;;;;;;;5058733;28;20020;-92
2022/06/12 07:09:23;;;;;;;7.32;3.70;;;;;;;;;;5058804;28;20029;-93
2022/06/12 07:11:49;;;;;;;4.45;3.65;;;;;;;;;;5059268;28;20028;-91
2022/06/12 07:14:15;;;;;;;6.03;4.00;;;;;;;;;;5058710;28;20435;-93
2022/06/12 07:16:41;;;;;;;5.57;3.85;;;;;;;;;;5058965;28;20060;-94
2022/06/12 07:19:10;;;;;;;10.57;4.00;;;;;;;;;;5058526;28;20023;-93
2022/06/12 07:21:36;;;;;;;6.80;4.57;;;;;;;;;;5058507;28;20488;-92
2022/06/12 07:24:03;;;;;;;5.93;4.35;;;;;;;;;;5058445;28;20028;-92
2022/06/12 07:26:32;;;;;;;9.10;5.03;;;;;;;;;;5058468;28;20113;-92
2022/06/12 07:29:01;;;;;;;8.70;4.28;;;;;;;;;;5058331;28;20486;-92
2022/06/12 07:31:28;;;;;;;5.80;4.40;;;;;;;;;;5058222;28;20115;-93
2022/06/12 07:33:54;;;;;;;7.05;4.47;;;;;;;;;;5058430;28;20119;-92
2022/06/12 07:36:23;;;;;;;8.02;5.30;;;;;;;;;;5058120;28;20029;-92
2022/06/12 07:38:56;;;;;;;7.25;4.20;;;;;;;;;;5058927;28;20378;-92
2022/06/12 07:41:23;;;;;;;10.43;4.68;;;;;;;;;;5058460;28;20021;-93
2022/06/12 07:43:52;;;;;;;5.43;3.70;;;;;;;;;;5058206;28;20035;-92
2022/06/12 07:46:22;;;;;;;4.35;3.95;;;;;;;;;;5058302;28;20024;-91
2022/06/12 07:48:56;;;;;;;8.05;4.32;;;;;;;;;;5058209;28;20025;-93
2022/06/12 07:51:22;;;;;;;5.43;3.83;;;;;;;;;;5058706;28;20024;-93
2022/06/12 07:53:52;;;;;;;6.45;4.10;;;;;;;;;;5058308;28;20020;-91
2022/06/12 07:56:19;;;;;;;5.97;3.95;;;;;;;;;;5058225;28;20024;-92
2022/06/12 07:58:46;;;;;;;6.68;3.35;;;;;;;;;;5057761;28;20025;-91
2022/06/12 08:01:14;;;;;;;4.95;3.58;;;;;;;;;;5057382;28;20111;-90
2022/06/12 08:03:41;;;;;;;6.35;4.00;;;;;;;;;;5057116;28;20028;-92
2022/06/12 08:06:12;;;;;;;5.50;3.78;;;;;;;;;;5074516;28;20089;-93
2022/06/12 08:08:46;;;;;;;6.50;3.47;;;;;;;;;;5078295;28;20028;-91
2022/06/12 08:11:12;;;;;;;6.80;3.60;;;;;;;;;;5077432;28;20057;-92
2022/06/12 08:13:41;;;;;;;5.82;3.85;;;;;;;;;;5077484;28;20383;-93
2022/06/12 08:16:13;;;;;;;5.13;3.50;;;;;;;;;;5077503;28;20020;-92
2022/06/12 08:18:42;;;;;;;4.72;3.80;;;;;;;;;;5077874;28;20486;-92
2022/06/12 08:21:10;;;;;;;7.80;3.72;;;;;;;;;;5077552;28;20020;-92
2022/06/12 08:23:46;;;;;;;9.07;4.15;;;;;;;;;;5077650;28;20016;-92
2022/06/12 08:26:33;;;;;;;6.63;3.65;;;;;;;;;;5077720;28;20020;-92
2022/06/12 08:29:02;;;;;;;6.25;3.83;;;;;;;;;;5077669;28;20027;-92
2022/06/12 08:31:36;;;;;;;5.85;4.03;;;;;;;;;;5076936;28;20028;-91
2022/06/12 08:34:04;;;;;;;6.75;4.07;;;;;;;;;;5076924;28;20020;-91
2022/06/12 08:36:31;;;;;;;6.32;4.00;;;;;;;;;;5076893;28;20024;-91
2022/06/12 08:38:57;;;;;;;8.57;4.80;;;;;;;;;;5077082;28;20024;-92
2022/06/12 08:41:31;;;;;;;8.20;3.92;;;;;;;;;;5077107;28;20055;-93
2022/06/12 08:44:03;;;;;;;8.43;3.92;;;;;;;;;;5077494;28;20111;-92
2022/06/12 08:46:35;;;;;;;7.70;4.10;;;;;;;;;;5076984;28;20035;-92
2022/06/12 08:49:23;;;;;;;4.72;3.95;;;;;;;;;;5076872;28;20488;-92
2022/06/12 08:52:02;;;;;;;5.03;4.30;;;;;;;;;;5076723;28;20393;-92
2022/06/12 08:54:41;;;;;;;5.00;3.80;;;;;;;;;;5076755;28;20063;-92
2022/06/12 08:57:12;;;;;;;8.10;3.75;;;;;;;;;;5076528;28;20038;-91
2022/06/12 08:59:50;;;;;;;7.30;4.00;;;;;;;;;;5076650;28;20020;-93
2022/06/12 09:02:28;;;;;;;5.07;3.42;;;;;;;;;;5076822;28;20021;-93
2022/06/12 09:04:54;;;;;;;10.15;4.00;;;;;;;;;;5076797;28;20051;-92
2022/06/12 09:07:26;;;;;;;6.15;3.72;;;;;;;;;;5076663;28;20046;-93
2022/06/12 09:09:56;;;;;;;7.68;3.63;;;;;;;;;;5076556;28;20020;-92
2022/06/12 09:12:36;;;;;;;7.35;3.38;;;;;;;;;;5076592;28;20024;-92
2022/06/12 09:15:22;;;;;;;8.82;3.80;;;;;;;;;;5076649;28;20030;-92
2022/06/12 09:17:48;;;;;;;5.93;3.60;;;;;;;;;;5077022;28;20016;-93
2022/06/12 09:20:32;;;;;;;5.45;3.47;;;;;;;;;;5076498;28;20052;-94
2022/06/12 09:23:06;;;;;;;5.97;3.63;;;;;;;;;;5076429;28;20473;-92
2022/06/12 09:25:44;;;;;;;7.50;3.40;;;;;;;;;;5076631;28;20123;-92
2022/06/12 09:28:36;;;;;;;8.57;3.22;;;;;;;;;;5076318;28;20023;-93
2022/06/12 09:31:35;;;;;;;5.30;3.10;;;;;;;;;;5076478;28;20473;-93
2022/06/12 09:34:07;;;;;;;7.60;3.42;;;;;;;;;;5043943;28;20036;-93
2022/06/12 09:36:53;;;;;;;4.45;3.28;;;;;;;;;;5076440;28;20500;-93
2022/06/12 09:39:22;;;;;;;7.38;3.00;;;;;;;;;;5076545;28;20021;-92
2022/06/12 09:41:48;;;;;;;6.32;3.47;;;;;;;;;;5076364;28;20523;-94
2022/06/12 09:44:14;;;;;;;9.45;3.53;;;;;;;;;;5076609;28;20052;-95
2022/06/12 09:46:51;;;;;;;7.13;3.78;;;;;;;;;;5077029;28;20477;-93
2022/06/12 09:49:26;;;;;;;6.03;3.40;;;;;;;;;;5076258;28;20027;-93
2022/06/12 09:51:52;;;;;;;7.82;3.00;;;;;;;;;;5076816;28;20024;-92
2022/06/12 09:54:35;;;;;;;6.03;3.05;;;;;;;;;;5076624;28;20024;-93
2022/06/12 09:57:20;;;;;;;8.15;3.15;;;;;;;;;;5076308;28;20035;-91
2022/06/12 09:59:46;;;;;;;6.85;3.75;;;;;;;;;;5075964;28;20093;-92
2022/06/12 10:02:15;;;;;;;10.95;3.20;;;;;;;;;;5075985;28;20020;-92
2022/06/12 10:04:45;;;;;;;5.25;3.20;;;;;;;;;;5069408;28;20594;-91
2022/06/12 10:07:17;;;;;;;4.72;3.17;;;;;;;;;;5069098;28;20036;-91
2022/06/12 10:09:46;;;;;;;8.48;3.38;;;;;;;;;;5055649;28;20515;-90
2022/06/12 10:12:24;;;;;;;8.07;3.17;;;;;;;;;;5087996;28;20032;-91
2022/06/12 10:21:16;;;;;;;6.15;3.35;;;;;;;;;;5094057;28;20389;-90
2022/06/12 10:23:43;;;;;;;5.97;3.50;;;;;;;;;;5075623;28;20020;-92
2022/06/12 10:26:17;;;;;;;4.03;2.70;;;;;;;;;;5076067;28;20021;-91
2022/06/12 10:28:44;;;;;;;6.10;2.85;;;;;;;;;;5079196;28;20020;-91
2022/06/12 10:31:19;;;;;;;5.90;2.90;;;;;;;;;;5079520;28;20114;-93
2022/06/12 10:33:56;;;;;;;5.68;2.85;;;;;;;;;;5079485;28;20028;-92
2022/06/12 10:36:34;;;;;;;6.13;3.17;;;;;;;;;;5079270;28;20024;-93
2022/06/12 10:39:13;;;;;;;5.90;2.80;;;;;;;;;;5079752;28;20028;-91
2022/06/12 10:41:59;;;;;;;3.90;2.97;;;;;;;;;;5079917;28;20024;-93
2022/06/12 10:44:44;;;;;;;4.05;3.05;;;;;;;;;;5079213;28;20032;-91
2022/06/12 10:47:22;;;;;;;5.05;2.92;;;;;;;;;;5078929;28;20032;-91
2022/06/12 10:50:11;;;;;;;4.82;2.78;;;;;;;;;;5078788;28;20028;-92
2022/06/12 10:52:37;;;;;;;5.63;2.90;;;;;;;;;;5069463;28;20028;-92
2022/06/12 10:55:12;;;;;;;3.78;2.80;;;;;;;;;;5096829;28;20016;-92
2022/06/12 10:58:01;;;;;;;8.27;3.40;;;;;;;;;;5079020;28;20044;-91
2022/06/12 11:00:32;;;;;;;4.55;2.67;;;;;;;;;;5069659;28;20112;-90
2022/06/12 11:03:04;;;;;;;3.10;2.35;;;;;;;;;;5091772;28;20024;-91
2022/06/12 11:05:30;;;;;;;;;;;;;;;;;;5071170;28;20543;-92
2022/06/12 11:08:08;;;;;;;3.92;2.38;;;;;;;;;;5078529;28;20358;-91
2022/06/12 11:10:43;;;;;;;5.93;2.55;;;;;;;;;;5067297;28;20469;-92
2022/06/12 11:13:25;;;;;;;5.68;2.92;;;;;;;;;;5058796;28;20021;-92
2022/06/12 11:16:15;;;;;;;7.25;2.83;;;;;;;;;;5058322;28;20103;-92
2022/06/12 11:19:01;;;;;;;4.57;2.70;;;;;;;;;;5070721;28;20063;-91
2022/06/12 11:21:50;;;;;;;5.50;3.00;;;;;;;;;;5072531;28;20478;-92
2022/06/12 11:24:23;;;;;;;5.38;3.30;;;;;;;;;;5025656;28;20035;-93
2022/06/12 11:26:49;;;;;;;4.60;2.67;;;;;;;;;;5058337;28;20024;-91
2022/06/12 11:29:33;;;;;;;16.42;2.80;;;;;;;;;;5075508;28;20384;-92
2022/06/12 11:32:18;;;;;;;3.67;2.90;;;;;;;;;;5078681;28;20485;-91
2022/06/12 11:35:03;;;;;;;4.25;2.83;;;;;;;;;;5078233;28;20028;-93
2022/06/12 11:37:35;;;;;;;3.22;2.42;;;;;;;;;;5078581;28;20027;-92
2022/06/12 11:40:03;;;;;;;4.28;2.30;;;;;;;;;;5077944;28;20020;-92
2022/06/12 11:42:41;;;;;;;2.20;2.00;;;;;;;;;;5078082;28;20111;-92
2022/06/12 11:45:12;;;;;;;2.70;1.90;;;;;;;;;;5077859;28;20016;-92
2022/06/12 11:47:51;;;;;;;3.05;2.00;;;;;;;;;;5077750;28;20033;-91
2022/06/12 11:50:35;;;;;;;7.13;2.58;;;;;;;;;;5077706;28;20379;-92
2022/06/12 11:53:20;;;;;;;2.53;2.03;;;;;;;;;;5077967;28;20499;-91
2022/06/12 11:56:02;;;;;;;4.53;2.33;;;;;;;;;;5077834;28;20500;-92
2022/06/12 11:58:40;;;;;;;2.70;2.40;;;;;;;;;;5077553;28;20016;-91
2022/06/12 12:01:06;;;;;;;4.97;2.38;;;;;;;;;;5077777;28;20071;-92
2022/06/12 12:03:38;;;;;;;4.40;2.55;;;;;;;;;;5077565;28;20069;-91
2022/06/12 12:06:22;;;;;;;2.25;2.05;;;;;;;;;;5077326;28;20047;-92
2022/06/12 12:08:59;;;;;;;3.55;2.05;;;;;;;;;;5077520;28;20035;-92
2022/06/12 12:11:45;;;;;;;2.85;2.00;;;;;;;;;;5077512;28;20028;-91
2022/06/12 12:14:16;;;;;;;2.40;1.83;;;;;;;;;;5077417;28;20048;-92
2022/06/12 12:16:45;;;;;;;3.13;1.98;;;;;;;;;;5078286;28;20362;-92
2022/06/12 12:19:18;;;;;;;2.33;1.88;;;;;;;;;;5077292;28;20216;-90
2022/06/12 12:21:56;;;;;;;4.35;2.45;;;;;;;;;;5077408;28;20401;-91
2022/06/12 12:24:58;;;;;;;3.47;2.20;;;;;;;;;;5077548;28;20123;-92
2022/06/12 12:27:35;;;;;;;3.10;2.03;;;;;;;;;;5077085;28;20020;-91
2022/06/12 12:30:03;;;;;;;3.13;2.00;;;;;;;;;;5076910;28;20099;-91
2022/06/12 12:32:34;;;;;;;4.28;2.13;;;;;;;;;;5077072;28;20489;-92
2022/06/12 12:41:11;;;;;;;4.97;2.10;;;;;;;;;;5077310;28;20174;-90
2022/06/12 12:43:25;;;;;;;2.25;1.90;;;;;;;;;;5095288;28;20046;-90
2022/06/12 12:46:22;;;;;;;4.22;2.20;;;;;;;;;;5076889;28;20156;-90
2022/06/12 12:48:49;;;;;;;4.40;2.40;;;;;;;;;;5064761;28;20040;-91
2022/06/12 12:51:29;;;;;;;3.33;2.40;;;;;;;;;;5056711;28;20048;-91
2022/06/12 13:00:34;;;;;;;6.15;2.75;;;;;;;;;;5053418;28;20082;-92
2022/06/12 13:03:03;;;;;;;7.10;2.70;;;;;;;;;;5035967;28;20399;-90
2022/06/12 13:05:47;;;;;;;7.60;2.78;;;;;;;;;;5035799;28;20094;-91
2022/06/12 13:08:13;;;;;;;10.13;2.60;;;;;;;;;;5036353;28;20538;-90
2022/06/12 13:19:58;;;;;;;3.55;2.38;;;;;;;;;;5012444;28;20030;-91
2022/06/12 13:22:31;;;;;;;5.45;3.38;;;;;;;;;;5012699;28;20060;-91
2022/06/12 13:25:29;;;;;;;6.90;2.97;;;;;;;;;;5034296;28;20033;-91
2022/06/12 13:28:06;;;;;;;5.88;2.83;;;;;;;;;;5028052;28;20118;-91
2022/06/12 13:30:42;;;;;;;7.97;3.10;;;;;;;;;;5076835;28;20040;-91
2022/06/12 13:33:26;;;;;;;6.45;2.75;;;;;;;;;;5077195;28;20149;-90
2022/06/12 13:35:55;;;;;;;5.35;2.40;;;;;;;;;;5076662;28;20031;-90
2022/06/12 13:38:24;;;;;;;8.93;4.43;;;;;;;;;;5076726;28;20031;-92
2022/06/12 13:41:27;;;;;;;9.52;4.72;;;;;;;;;;5076689;28;20024;-91
2022/06/12 13:43:55;;;;;;;6.88;5.13;;;;;;;;;;5069847;28;20036;-90
2022/06/12 13:46:26;;;;;;;11.38;7.80;;;;;;;;;;5076496;28;20039;-90
2022/06/12 13:48:54;;;;;;;10.70;5.97;;;;;;;;;;5093879;28;20024;-90
2022/06/12 13:51:39;;;;;;;5.25;4.03;;;;;;;;;;5075724;28;20081;-89
2022/06/12 13:54:11;;;;;;;5.40;3.60;;;;;;;;;;5064282;28;20025;-90
2022/06/12 13:56:43;;;;;;;5.47;3.70;;;;;;;;;;5055818;28;20025;-90
2022/06/12 13:59:36;;;;;;;8.00;3.25;;;;;;;;;;5055838;28;20025;-89
2022/06/12 14:02:38;;;;;;;11.65;3.90;;;;;;;;;;5040690;28;20170;-89
2022/06/12 14:05:17;;;;;;;8.60;2.90;;;;;;;;;;5059479;28;20044;-91
2022/06/12 14:07:45;;;;;;;6.78;3.00;;;;;;;;;;5059659;28;20347;-89
2022/06/12 14:10:17;;;;;;;10.93;3.95;;;;;;;;;;5069615;28;20020;-89
2022/06/12 14:12:45;;;;;;;7.05;3.30;;;;;;;;;;5079656;28;20362;-88
2022/06/12 14:15:25;;;;;;;7.93;3.35;;;;;;;;;;5079408;28;20043;-91
2022/06/12 14:17:53;;;;;;;11.48;3.72;;;;;;;;;;5079422;28;20024;-90
2022/06/12 14:20:48;;;;;;;8.88;3.50;;;;;;;;;;5079451;28;20119;-90
2022/06/12 14:23:24;;;;;;;4.63;2.60;;;;;;;;;;5067195;28;20085;-89
2022/06/12 14:26:00;;;;;;;8.18;3.63;;;;;;;;;;5079280;28;20389;-89
2022/06/12 14:28:28;;;;;;;7.55;3.58;;;;;;;;;;5079273;28;20073;-90
2022/06/12 14:30:57;;;;;;;10.93;5.70;;;;;;;;;;5079112;28;20024;-90
2022/06/12 14:33:25;;;;;;;10.65;4.53;;;;;;;;;;5079403;28;20070;-91
2022/06/12 14:35:54;;;;;;;6.47;3.92;;;;;;;;;;5079163;28;20077;-90
2022/06/12 14:38:25;;;;;;;10.02;4.72;;;;;;;;;;5079026;28;20024;-90
2022/06/12 14:40:54;;;;;;;9.00;4.78;;;;;;;;;;5079049;28;20053;-91
2022/06/12 14:43:33;;;;;;;8.90;4.15;;;;;;;;;;5078821;28;20031;-90
2022/06/12 14:46:01;;;;;;;9.45;3.60;;;;;;;;;;5079055;28;20024;-89
2022/06/12 14:48:35;;;;;;;9.80;3.75;;;;;;;;;;5076807;28;20046;-90
2022/06/12 14:51:01;;;;;;;23.40;4.40;;;;;;;;;;5058890;28;20043;-89
2022/06/12 14:53:27;;;;;;;11.40;4.00;;;;;;;;;;5059341;28;20433;-90
2022/06/12 14:55:58;;;;;;;9.82;4.40;;;;;;;;;;5059176;28;20028;-92
2022/06/12 14:58:29;;;;;;;6.22;3.63;;;;;;;;;;5059044;28;20387;-90
2022/06/12 15:00:56;;;;;;;8.63;3.63;;;;;;;;;;5073586;28;20028;-91
2022/06/12 15:03:25;;;;;;;12.40;3.50;;;;;;;;;;5078876;28;20063;-89
2022/06/12 15:05:52;;;;;;;11.45;4.30;;;;;;;;;;5075282;28;20040;-90
2022/06/12 15:08:18;;;;;;;12.77;3.70;;;;;;;;;;5075776;28;20032;-91
2022/06/12 15:10:44;;;;;;;6.25;4.00;;;;;;;;;;5075095;28;20032;-89
2022/06/12 15:13:14;;;;;;;10.57;4.30;;;;;;;;;;5074696;28;20498;-90
2022/06/12 15:15:40;;;;;;;6.30;3.42;;;;;;;;;;5075081;28;20028;-89
2022/06/12 15:18:07;;;;;;;8.68;3.75;;;;;;;;;;5076318;28;20105;-89
2022/06/12 15:20:33;;;;;;;6.55;3.80;;;;;;;;;;5074884;28;20390;-89
2022/06/12 15:23:00;;;;;;;8.52;3.25;;;;;;;;;;5075029;28;20036;-90
2022/06/12 15:30:59;;;;;;;9.38;3.63;;;;;;;;;;5064493;28;20071;-91
2022/06/12 15:33:26;;;;;;;8.07;4.25;;;;;;;;;;5059165;28;20067;-90
2022/06/12 15:35:55;;;;;;;11.55;3.60;;;;;;;;;;5063410;28;20063;-89
2022/06/12 15:38:24;;;;;;;6.10;3.50;;;;;;;;;;5074534;28;20028;-90
2022/06/12 15:40:50;;;;;;;7.15;3.67;;;;;;;;;;5074529;28;20021;-89
2022/06/12 15:43:17;;;;;;;5.85;3.40;;;;;;;;;;5061069;28;20016;-89
2022/06/12 15:45:43;;;;;;;6.32;3.80;;;;;;;;;;5074475;28;20050;-90
2022/06/12 15:48:14;;;;;;;10.68;4.75;;;;;;;;;;5074510;28;20123;-90
2022/06/12 15:50:43;;;;;;;5.90;3.40;;;;;;;;;;5074433;28;20038;-90
2022/06/12 15:53:11;;;;;;;7.75;3.90;;;;;;;;;;5074562;28;20033;-90
2022/06/12 15:55:37;;;;;;;11.20;4.00;;;;;;;;;;5074197;28;20024;-90
2022/06/12 15:58:03;;;;;;;6.10;3.50;;;;;;;;;;5074232;28;20027;-90
2022/06/12 16:00:29;;;;;;;9.25;4.00;;;;;;;;;;5073906;28;20031;-89
2022/06/12 16:02:56;;;;;;;10.02;4.10;;;;;;;;;;5074219;28;20025;-89
2022/06/12 16:05:25;;;;;;;12.85;4.18;;;;;;;;;;5063132;28;20075;-90
2022/06/12 16:07:51;;;;;;;6.72;3.55;;;;;;;;;;5053992;28;20024;-90
2022/06/12 16:10:18;;;;;;;6.30;3.60;;;;;;;;;;5053778;28;20120;-90
2022/06/12 16:12:45;;;;;;;6.22;3.40;;;;;;;;;;5054011;28;20021;-90
2022/06/12 16:15:17;;;;;;;8.10;3.75;;;;;;;;;;5054036;28;20061;-90
2022/06/12 16:17:43;;;;;;;8.52;3.63;;;;;;;;;;5050435;28;20479;-90
2022/06/12 16:20:14;;;;;;;6.50;3.65;;;;;;;;;;5051004;28;20017;-90
2022/06/12 16:22:42;;;;;;;8.85;3.22;;;;;;;;;;5051024;28;20033;-90
2022/06/12 16:25:10;;;;;;;9.48;3.83;;;;;;;;;;5049925;28;20087;-91
2022/06/12 16:27:37;;;;;;;8.90;3.63;;;;;;;;;;5061158;28;20028;-92
2022/06/12 16:30:06;;;;;;;8.07;4.07;;;;;;;;;;5054032;28;20471;-91
2022/06/12 16:32:34;;;;;;;9.82;3.97;;;;;;;;;;5053718;28;20032;-91
2022/06/12 16:35:07;;;;;;;11.00;3.95;;;;;;;;;;5053740;28;20025;-91
2022/06/12 16:37:35;;;;;;;10.50;4.03;;;;;;;;;;5053625;28;20021;-90
2022/06/12 16:40:04;;;;;;;7.90;3.90;;;;;;;;;;5053802;28;20045;-91
2022/06/12 16:42:37;;;;;;;6.03;4.00;;;;;;;;;;5053458;28;20021;-91
2022/06/12 16:45:04;;;;;;;6.03;3.80;;;;;;;;;;5053770;28;20021;-90
2022/06/12 16:47:33;;;;;;;7.80;3.60;;;;;;;;;;5053616;28;20021;-91
2022/06/12 16:50:02;;;;;;;6.85;3.95;;;;;;;;;;5053703;28;20029;-92
2022/06/12 16:52:28;;;;;;;9.57;4.07;;;;;;;;;;5053915;28;20040;-89
2022/06/12 16:54:56;;;;;;;7.28;3.25;;;;;;;;;;5049921;28;20017;-90
2022/06/12 16:57:27;;;;;;;5.75;3.42;;;;;;;;;;5033533;28;20105;-90
2022/06/12 16:59:55;;;;;;;12.80;3.88;;;;;;;;;;5050977;28;20028;-90
2022/06/12 17:02:25;;;;;;;9.43;4.07;;;;;;;;;;5053453;28;20028;-91
2022/06/12 17:04:51;;;;;;;7.35;3.67;;;;;;;;;;5059604;28;20056;-89
2022/06/12 17:07:19;;;;;;;6.28;3.58;;;;;;;;;;5069139;28;20013;-89
2022/06/12 17:09:46;;;;;;;8.30;3.63;;;;;;;;;;5071441;28;20123;-89
2022/06/12 17:12:13;;;;;;;8.73;3.70;;;;;;;;;;5072477;28;20060;-89
2022/06/12 17:14:41;;;;;;;8.55;4.00;;;;;;;;;;5072444;28;20059;-90
2022/06/12 17:17:08;;;;;;;11.02;4.60;;;;;;;;;;5072798;28;20020;-90
2022/06/12 17:22:21;;;;;;;13.25;4.10;;;;;;;;;;5074162;28;20039;-90
2022/06/12 17:24:47;;;;;;;9.60;3.92;;;;;;;;;;5072644;28;20031;-89
2022/06/12 17:27:13;;;;;;;10.40;4.93;;;;;;;;;;5073138;28;20031;-91
2022/06/12 17:29:40;;;;;;;11.57;4.15;;;;;;;;;;5072835;28;20371;-90
2022/06/12 17:32:06;;;;;;;12.05;4.00;;;;;;;;;;5072886;28;20475;-90
2022/06/12 17:34:32;;;;;;;18.17;4.55;;;;;;;;;;5072604;28;20059;-91
2022/06/12 17:37:01;;;;;;;10.30;4.30;;;;;;;;;;5074322;28;20016;-92
2022/06/12 17:39:27;;;;;;;15.85;4.20;;;;;;;;;;5077095;28;20020;-91
2022/06/12 17:41:53;;;;;;;7.57;4.03;;;;;;;;;;5076914;28;20024;-89
2022/06/12 17:44:20;;;;;;;8.52;4.03;;;;;;;;;;5076740;28;20029;-89
2022/06/12 17:46:47;;;;;;;7.82;4.40;;;;;;;;;;5076867;28;20367;-91
2022/06/12 17:49:24;;;;;;;7.60;3.72;;;;;;;;;;5076886;28;20078;-89
2022/06/12 17:51:58;;;;;;;4.60;3.70;;;;;;;;;;5057764;28;20025;-89
2022/06/12 17:54:24;;;;;;;7.38;3.95;;;;;;;;;;5076672;28;20070;-89
2022/06/12 17:56:59;;;;;;;6.65;3.95;;;;;;;;;;5077496;28;20023;-90
2022/06/12 17:59:25;;;;;;;6.45;3.58;;;;;;;;;;5060775;28;20040;-90
2022/06/12 18:01:54;;;;;;;11.43;3.88;;;;;;;;;;5061295;28;20051;-90
2022/06/12 18:04:20;;;;;;;9.95;4.38;;;;;;;;;;5072299;28;20017;-91
2022/06/12 18:06:46;;;;;;;6.72;3.83;;;;;;;;;;5079487;28;20031;-90
2022/06/12 18:09:15;;;;;;;11.25;4.38;;;;;;;;;;5080037;28;20481;-90
2022/06/12 18:11:44;;;;;;;7.90;3.92;;;;;;;;;;5079331;28;20034;-90
2022/06/12 18:14:15;;;;;;;17.05;4.00;;;;;;;;;;5077507;28;20048;-90
2022/06/12 18:19:27;;;;;;;10.52;4.38;;;;;;;;;;5078328;28;20170;-90
2022/06/12 18:21:55;;;;;;;10.20;4.28;;;;;;;;;;5074052;28;20054;-90
2022/06/12 18:24:24;;;;;;;9.32;4.57;;;;;;;;;;5079151;28;20028;-90
2022/06/12 18:26:52;;;;;;;9.40;3.70;;;;;;;;;;5079216;28;20031;-89
2022/06/12 18:29:19;;;;;;;10.05;4.05;;;;;;;;;;5078586;28;20545;-90
2022/06/12 18:31:46;;;;;;;9.50;4.00;;;;;;;;;;5077277;28;20028;-90
2022/06/12 18:34:27;;;;;;;10.60;4.68;;;;;;;;;;5095540;28;20057;-89
2022/06/12 18:36:53;;;;;;;14.60;4.13;;;;;;;;;;5074518;28;20023;-89
2022/06/12 18:39:19;;;;;;;13.43;4.20;;;;;;;;;;5075545;28;20024;-89
2022/06/12 18:41:45;;;;;;;8.27;4.15;;;;;;;;;;5075768;28;20111;-90
2022/06/12 18:44:14;;;;;;;7.63;4.03;;;;;;;;;;5073542;28;20061;-90
2022/06/12 18:46:42;;;;;;;8.05;3.85;;;;;;;;;;5066748;28;20020;-91
2022/06/12 18:49:09;;;;;;;8.30;3.80;;;;;;;;;;5078036;28;20031;-89
2022/06/12 18:51:36;;;;;;;9.77;3.90;;;;;;;;;;5065562;28;20497;-90
2022/06/12 18:54:03;;;;;;;4.70;3.60;;;;;;;;;;5078906;28;20020;-90
2022/06/12 18:56:29;;;;;;;7.50;3.40;;;;;;;;;;5072967;28;20016;-90
2022/06/12 18:58:55;;;;;;;8.82;4.07;;;;;;;;;;5072620;28;20351;-90
2022/06/12 19:01:24;;;;;;;7.38;4.07;;;;;;;;;;5065943;28;20024;-90
2022/06/12 19:03:53;;;;;;;7.95;3.72;;;;;;;;;;5075407;28;20028;-89
2022/06/12 19:06:20;;;;;;;7.47;3.80;;;;;;;;;;5072620;28;20537;-90
2022/06/12 19:08:54;;;;;;;9.90;4.00;;;;;;;;;;5078917;28;20024;-92